createdAt,value
2017-12-19T00:01:18.973Z,30.85
2017-12-19T00:03:46.425Z,31.00
2017-12-19T00:06:13.895Z,30.12
2017-12-19T00:08:41.341Z,31.80
2017-12-19T00:11:08.792Z,30.05
2017-12-19T00:13:36.254Z,34.83
2017-12-19T00:16:03.766Z,41.17
2017-12-19T00:18:31.990Z,49.20
2017-12-19T00:20:59.456Z,50.40
2017-12-19T00:23:27.696Z,38.17
2017-12-19T00:25:55.149Z,36.03
2017-12-19T00:28:22.614Z,43.25
2017-12-19T00:30:50.085Z,33.58
2017-12-19T00:33:17.540Z,35.80
2017-12-19T00:35:45.001Z,38.00
2017-12-19T00:38:13.457Z,36.58
2017-12-19T00:40:41.696Z,43.42
2017-12-19T00:43:09.178Z,34.75
2017-12-19T00:45:37.391Z,32.50
2017-12-19T00:48:04.871Z,31.85
2017-12-19T00:50:32.344Z,32.05
2017-12-19T00:52:59.815Z,32.00
2017-12-19T00:55:27.275Z,31.92
2017-12-19T00:57:55.494Z,31.30
2017-12-19T01:00:22.956Z,30.95
2017-12-19T01:02:50.417Z,33.05
2017-12-19T01:05:17.906Z,34.72
2017-12-19T01:07:45.352Z,31.35
2017-12-19T01:10:12.804Z,33.28
2017-12-19T01:12:40.277Z,32.25
2017-12-19T01:15:07.732Z,33.88
2017-12-19T01:17:35.195Z,35.05
2017-12-19T01:20:03.426Z,33.38
2017-12-19T01:22:30.885Z,31.27
2017-12-19T01:24:58.376Z,33.90
2017-12-19T01:27:25.834Z,34.15
2017-12-19T01:29:53.298Z,33.83
2017-12-19T01:32:21.526Z,34.78
2017-12-19T01:34:48.995Z,33.50
2017-12-19T01:37:16.463Z,34.47
2017-12-19T01:39:43.918Z,30.45
2017-12-19T01:42:12.208Z,31.90
2017-12-19T01:44:39.668Z,31.27
2017-12-19T01:47:07.132Z,34.65
2017-12-19T01:49:34.586Z,31.62
2017-12-19T01:52:02.049Z,33.75
2017-12-19T01:54:30.272Z,34.40
2017-12-19T01:56:57.765Z,31.10
2017-12-19T01:59:25.218Z,36.53
2017-12-19T02:01:52.671Z,35.92
2017-12-19T02:04:20.178Z,35.90
2017-12-19T02:06:47.594Z,35.85
2017-12-19T02:09:15.053Z,34.92
2017-12-19T02:11:42.523Z,33.58
2017-12-19T02:14:10.748Z,34.88
2017-12-19T02:16:42.031Z,34.80
2017-12-19T02:19:09.480Z,36.17
2017-12-19T02:21:36.940Z,32.17
2017-12-19T02:24:04.399Z,32.65
2017-12-19T02:26:31.862Z,34.17
2017-12-19T02:28:59.319Z,32.60
2017-12-19T02:31:26.778Z,31.95
2017-12-19T02:33:55.016Z,32.25
2017-12-19T02:36:22.488Z,34.38
2017-12-19T02:38:49.931Z,33.33
2017-12-19T02:41:17.397Z,33.65
2017-12-19T02:43:44.850Z,34.53
2017-12-19T02:46:12.310Z,36.08
2017-12-19T02:48:39.772Z,37.28
2017-12-19T02:51:07.224Z,35.45
2017-12-19T02:53:34.688Z,38.72
2017-12-19T02:56:02.155Z,36.53
2017-12-19T02:58:29.626Z,32.38
2017-12-19T03:00:57.857Z,35.42
2017-12-19T03:03:25.323Z,36.38
2017-12-19T03:05:52.786Z,36.13
2017-12-19T03:08:20.253Z,32.42
2017-12-19T03:10:47.714Z,34.53
2017-12-19T03:13:15.172Z,32.22
2017-12-19T03:15:42.652Z,32.85
2017-12-19T03:18:11.248Z,35.17
2017-12-19T03:20:39.475Z,35.25
2017-12-19T03:23:06.938Z,30.83
2017-12-19T03:25:34.410Z,32.58
2017-12-19T03:28:02.634Z,33.53
2017-12-19T03:30:30.088Z,34.08
2017-12-19T03:32:57.554Z,34.85
2017-12-19T03:35:25.012Z,33.88
2017-12-19T03:37:52.479Z,33.00
2017-12-19T03:40:19.930Z,34.00
2017-12-19T03:42:47.407Z,33.28
2017-12-19T03:45:14.873Z,33.50
2017-12-19T03:47:42.344Z,33.67
2017-12-19T03:50:10.566Z,33.45
2017-12-19T03:52:38.028Z,31.70
2017-12-19T03:55:05.501Z,30.80
2017-12-19T03:57:32.973Z,31.90
2017-12-19T04:00:00.432Z,30.42
2017-12-19T04:02:27.897Z,30.73
2017-12-19T04:04:56.127Z,30.85
2017-12-19T04:07:23.590Z,29.60
2017-12-19T04:09:51.053Z,32.60
2017-12-19T04:12:18.517Z,33.85
2017-12-19T04:14:45.983Z,29.55
2017-12-19T04:17:13.448Z,30.67
2017-12-19T04:19:40.914Z,33.30
2017-12-19T04:22:09.147Z,32.13
2017-12-19T04:24:36.605Z,29.05
2017-12-19T04:27:04.842Z,30.30
2017-12-19T04:29:33.065Z,31.12
2017-12-19T04:32:00.530Z,30.73
2017-12-19T04:34:27.988Z,31.95
2017-12-19T04:36:55.459Z,28.77
2017-12-19T04:39:22.931Z,28.12
2017-12-19T04:41:51.158Z,28.20
2017-12-19T04:44:18.625Z,30.58
2017-12-19T04:46:46.082Z,30.42
2017-12-19T04:49:13.541Z,30.25
2017-12-19T04:51:40.993Z,26.10
2017-12-19T04:54:08.502Z,27.92
2017-12-19T04:56:36.712Z,27.77
2017-12-19T04:59:04.170Z,27.25
2017-12-19T05:01:31.639Z,24.80
2017-12-19T05:03:59.097Z,27.75
2017-12-19T05:06:26.592Z,25.42
2017-12-19T05:08:54.041Z,24.25
2017-12-19T05:11:22.283Z,27.27
2017-12-19T05:13:49.738Z,24.83
2017-12-19T05:16:17.210Z,25.00
2017-12-19T05:18:44.689Z,23.48
2017-12-19T05:21:12.187Z,23.55
2017-12-19T05:23:39.646Z,23.33
2017-12-19T05:26:07.108Z,22.83
2017-12-19T05:28:34.576Z,20.45
2017-12-19T05:31:02.040Z,22.30
2017-12-19T05:33:29.512Z,21.80
2017-12-19T05:35:56.975Z,21.52
2017-12-19T05:38:24.453Z,23.50
2017-12-19T05:40:52.679Z,22.40
2017-12-19T05:43:20.147Z,21.55
2017-12-19T05:45:48.369Z,21.30
2017-12-19T05:48:15.834Z,22.92
2017-12-19T05:50:43.299Z,20.65
2017-12-19T05:53:10.762Z,21.00
2017-12-19T05:55:38.218Z,21.85
2017-12-19T05:58:05.678Z,21.67
2017-12-19T06:00:33.143Z,25.23
2017-12-19T06:03:00.612Z,22.95
2017-12-19T06:05:28.097Z,23.17
2017-12-19T06:07:55.552Z,22.13
2017-12-19T06:10:23.022Z,20.95
2017-12-19T06:12:51.261Z,22.90
2017-12-19T06:15:18.731Z,22.40
2017-12-19T06:17:46.196Z,23.40
2017-12-19T06:20:13.663Z,24.48
2017-12-19T06:22:41.898Z,22.35
2017-12-19T06:25:09.372Z,22.13
2017-12-19T06:27:36.855Z,23.33
2017-12-19T06:30:04.344Z,22.70
2017-12-19T06:32:31.820Z,21.77
2017-12-19T06:34:59.296Z,22.05
2017-12-19T06:37:26.777Z,22.25
2017-12-19T06:39:54.270Z,20.80
2017-12-19T06:42:21.810Z,23.50
2017-12-19T06:44:49.340Z,22.33
2017-12-19T06:47:16.851Z,24.85
2017-12-19T06:49:44.352Z,22.65
2017-12-19T06:52:11.905Z,26.05
2017-12-19T06:54:39.403Z,26.48
2017-12-19T06:57:07.687Z,23.45
2017-12-19T06:59:35.202Z,27.45
2017-12-19T07:02:02.724Z,26.23
2017-12-19T07:04:30.236Z,25.48
2017-12-19T07:06:57.766Z,26.98
2017-12-19T07:09:25.319Z,24.10
2017-12-19T07:11:52.826Z,24.58
2017-12-19T07:14:21.120Z,25.83
2017-12-19T07:16:48.613Z,25.88
2017-12-19T07:19:16.125Z,25.35
2017-12-19T07:21:44.409Z,26.27
2017-12-19T07:24:11.918Z,28.05
2017-12-19T07:26:39.447Z,27.40
2017-12-19T07:29:06.973Z,25.80
2017-12-19T07:31:35.226Z,25.17
2017-12-19T07:34:02.702Z,25.73
2017-12-19T07:36:30.943Z,27.33
2017-12-19T07:38:58.443Z,26.50
2017-12-19T07:41:26.728Z,24.83
2017-12-19T07:43:54.280Z,24.20
2017-12-19T07:46:21.797Z,24.60
2017-12-19T07:48:49.282Z,22.83
2017-12-19T07:51:17.546Z,24.30
2017-12-19T07:53:45.801Z,23.10
2017-12-19T07:56:13.282Z,23.65
2017-12-19T07:58:40.753Z,23.60
2017-12-19T08:01:09.006Z,20.48
2017-12-19T08:03:36.485Z,21.27
2017-12-19T08:06:04.733Z,20.45
2017-12-19T08:08:32.218Z,20.17
2017-12-19T08:11:00.464Z,22.23
2017-12-19T08:13:27.922Z,21.20
2017-12-19T08:15:55.404Z,22.40
2017-12-19T08:18:23.676Z,22.73
2017-12-19T08:20:51.126Z,21.40
2017-12-19T08:23:18.585Z,19.73
2017-12-19T08:25:46.830Z,20.37
2017-12-19T08:28:14.287Z,17.05
2017-12-19T08:30:41.751Z,18.55
2017-12-19T08:33:09.215Z,18.35
2017-12-19T08:35:36.669Z,17.20
2017-12-19T08:38:04.143Z,17.87
2017-12-19T08:40:32.412Z,15.88
2017-12-19T08:42:59.870Z,16.52
2017-12-19T08:45:28.094Z,18.50
2017-12-19T08:47:55.567Z,19.00
2017-12-19T08:50:23.013Z,16.67
2017-12-19T08:52:50.480Z,18.17
2017-12-19T08:55:17.937Z,18.42
2017-12-19T08:57:45.406Z,19.70
2017-12-19T09:00:12.859Z,18.62
2017-12-19T09:02:40.322Z,18.92
2017-12-19T09:05:07.773Z,15.93
2017-12-19T09:07:35.236Z,16.90
2017-12-19T09:10:02.695Z,17.70
2017-12-19T09:12:30.149Z,15.47
2017-12-19T09:14:57.606Z,15.57
2017-12-19T09:17:25.129Z,17.30
2017-12-19T09:19:52.527Z,16.73
2017-12-19T09:22:19.982Z,16.37
2017-12-19T09:24:47.450Z,15.30
2017-12-19T09:27:14.898Z,17.20
2017-12-19T09:29:42.353Z,16.87
2017-12-19T09:32:09.802Z,17.50
2017-12-19T09:34:37.269Z,14.80
2017-12-19T09:37:04.716Z,15.83
2017-12-19T09:39:32.190Z,15.73
2017-12-19T09:41:59.664Z,14.80
2017-12-19T09:44:27.109Z,15.43
2017-12-19T09:46:55.327Z,15.63
2017-12-19T09:49:22.788Z,15.97
2017-12-19T09:51:50.247Z,16.10
2017-12-19T09:54:17.707Z,16.30
2017-12-19T09:56:45.164Z,17.10
2017-12-19T09:59:12.632Z,14.13
2017-12-19T10:01:40.101Z,14.73
2017-12-19T10:04:07.554Z,16.17
2017-12-19T10:06:35.020Z,16.40
2017-12-19T10:09:02.496Z,16.03
2017-12-19T10:11:30.718Z,17.77
2017-12-19T10:13:58.187Z,16.67
2017-12-19T10:16:25.639Z,16.30
2017-12-19T10:18:53.107Z,16.50
2017-12-19T10:21:20.567Z,16.63
2017-12-19T10:23:48.034Z,14.90
2017-12-19T10:26:15.490Z,14.17
2017-12-19T10:28:42.988Z,15.70
2017-12-19T10:31:11.211Z,15.27
2017-12-19T10:33:38.667Z,15.97
2017-12-19T10:36:06.134Z,14.82
2017-12-19T10:38:33.653Z,16.40
2017-12-19T10:41:01.091Z,15.60
2017-12-19T10:43:29.342Z,16.23
2017-12-19T10:45:56.792Z,16.37
2017-12-19T10:48:24.256Z,15.52
2017-12-19T10:50:51.732Z,17.60
2017-12-19T10:53:20.548Z,16.80
2017-12-19T10:55:48.217Z,18.10
2017-12-19T10:58:15.707Z,16.60
2017-12-19T11:00:43.222Z,16.90
2017-12-19T11:03:10.732Z,16.53
2017-12-19T11:05:38.210Z,16.80
2017-12-19T11:08:06.433Z,19.70
2017-12-19T11:10:33.939Z,18.03
2017-12-19T11:13:02.149Z,16.93
2017-12-19T11:15:29.604Z,17.40
2017-12-19T11:17:57.046Z,16.83
2017-12-19T11:20:24.510Z,17.30
2017-12-19T11:22:51.948Z,14.37
2017-12-19T11:25:19.403Z,16.70
2017-12-19T11:27:47.617Z,14.47
2017-12-19T11:30:15.069Z,15.00
2017-12-19T11:32:42.517Z,13.43
2017-12-19T11:35:09.978Z,16.23
2017-12-19T11:37:37.427Z,13.97
2017-12-19T11:40:04.874Z,15.60
2017-12-19T11:42:32.328Z,14.80
2017-12-19T11:44:59.781Z,14.07
2017-12-19T11:47:27.237Z,14.90
2017-12-19T11:49:55.450Z,15.47
2017-12-19T11:52:22.895Z,15.67
2017-12-19T11:54:50.407Z,14.73
2017-12-19T11:57:17.810Z,15.57
2017-12-19T11:59:45.265Z,15.37
2017-12-19T12:02:12.781Z,14.53
2017-12-19T12:04:40.193Z,14.07
2017-12-19T12:07:07.661Z,13.33
2017-12-19T12:09:35.109Z,13.63
2017-12-19T12:12:02.553Z,13.40
2017-12-19T12:14:30.019Z,13.90
2017-12-19T12:16:57.468Z,12.33
2017-12-19T12:19:24.926Z,15.43
2017-12-19T12:21:52.375Z,13.83
2017-12-19T12:24:19.834Z,16.07
2017-12-19T12:26:47.288Z,16.57
2017-12-19T12:29:14.746Z,13.33
2017-12-19T12:31:42.194Z,16.23
2017-12-19T12:34:09.653Z,13.57
2017-12-19T12:36:37.105Z,14.17
2017-12-19T12:39:04.619Z,14.37
2017-12-19T12:41:32.084Z,13.10
2017-12-19T12:43:59.531Z,13.70
2017-12-19T12:46:26.972Z,14.67
2017-12-19T12:48:54.434Z,15.80
2017-12-19T12:51:21.899Z,16.53
2017-12-19T12:53:49.349Z,16.87
2017-12-19T12:56:16.801Z,14.80
2017-12-19T12:58:44.248Z,15.00
2017-12-19T13:01:11.708Z,15.37
2017-12-19T13:03:39.165Z,14.37
2017-12-19T13:06:06.630Z,16.93
2017-12-19T13:08:34.082Z,16.27
2017-12-19T13:11:01.525Z,17.37
2017-12-19T13:13:28.986Z,16.53
2017-12-19T13:15:56.440Z,15.80
2017-12-19T13:18:23.893Z,14.30
2017-12-19T13:20:51.338Z,15.80
2017-12-19T13:23:18.788Z,15.80
2017-12-19T13:25:46.246Z,16.23
2017-12-19T13:28:13.694Z,17.40
2017-12-19T13:30:41.155Z,17.50
2017-12-19T13:33:08.601Z,15.20
2017-12-19T13:35:36.057Z,17.57
2017-12-19T13:38:03.506Z,15.47
2017-12-19T13:40:30.957Z,15.50
2017-12-19T13:42:58.412Z,16.63
2017-12-19T13:45:26.629Z,14.60
2017-12-19T13:47:54.081Z,15.83
2017-12-19T13:50:21.528Z,15.00
2017-12-19T13:52:48.981Z,14.73
2017-12-19T13:55:16.442Z,12.50
2017-12-19T13:57:43.890Z,15.47
2017-12-19T14:00:11.362Z,14.43
2017-12-19T14:02:38.832Z,13.70
2017-12-19T14:05:06.333Z,11.33
2017-12-19T14:07:34.560Z,12.73
2017-12-19T14:10:02.055Z,14.03
2017-12-19T14:12:29.536Z,12.10
2017-12-19T14:14:57.018Z,14.35
2017-12-19T14:17:24.505Z,12.02
2017-12-19T14:19:51.993Z,12.63
2017-12-19T14:22:20.242Z,12.30
2017-12-19T14:24:47.771Z,14.60
2017-12-19T14:27:15.250Z,12.30
2017-12-19T14:29:42.726Z,12.07
2017-12-19T14:32:10.199Z,12.27
2017-12-19T14:34:37.674Z,13.13
2017-12-19T14:37:05.170Z,12.55
2017-12-19T14:39:32.658Z,12.60
2017-12-19T14:42:00.114Z,14.37
2017-12-19T14:44:27.576Z,13.97
2017-12-19T14:46:55.798Z,14.73
2017-12-19T14:49:23.264Z,12.77
2017-12-19T14:51:50.717Z,13.07
2017-12-19T14:54:18.181Z,14.67
2017-12-19T14:56:45.633Z,14.43
2017-12-19T14:59:13.096Z,14.27
2017-12-19T15:01:40.558Z,14.35
2017-12-19T15:04:08.012Z,13.40
2017-12-19T15:06:35.452Z,13.50
2017-12-19T15:09:02.930Z,13.63
2017-12-19T15:11:30.401Z,14.05
2017-12-19T15:13:57.891Z,15.05
2017-12-19T15:16:26.136Z,13.50
2017-12-19T15:18:53.599Z,15.87
2017-12-19T15:21:21.086Z,12.73
2017-12-19T15:23:48.559Z,10.57
2017-12-19T15:26:16.034Z,14.68
2017-12-19T15:28:43.498Z,13.53
2017-12-19T15:31:10.976Z,10.73
2017-12-19T15:33:38.447Z,13.32
2017-12-19T15:36:06.710Z,13.82
2017-12-19T15:38:34.178Z,13.90
2017-12-19T15:41:01.694Z,14.77
2017-12-19T15:43:29.140Z,15.27
2017-12-19T15:45:56.591Z,14.93
2017-12-19T15:48:24.050Z,14.45
2017-12-19T15:50:51.517Z,15.98
2017-12-19T15:53:18.962Z,15.20
2017-12-19T15:55:46.413Z,16.05
2017-12-19T15:58:14.793Z,14.33
2017-12-19T16:00:42.223Z,15.60
2017-12-19T16:03:10.467Z,15.23
2017-12-19T16:05:37.948Z,10.97
2017-12-19T16:08:05.409Z,16.50
2017-12-19T16:10:33.628Z,15.23
2017-12-19T16:13:01.129Z,16.70
2017-12-19T16:15:28.569Z,17.07
2017-12-19T16:17:56.026Z,15.93
2017-12-19T16:20:23.495Z,17.77
2017-12-19T16:22:50.938Z,16.17
2017-12-19T16:25:18.396Z,17.25
2017-12-19T16:27:45.844Z,15.20
2017-12-19T16:30:13.300Z,17.33
2017-12-19T16:32:40.753Z,17.60
2017-12-19T16:35:08.213Z,13.37
2017-12-19T16:37:35.665Z,15.50
2017-12-19T16:40:03.133Z,14.15
2017-12-19T16:42:30.627Z,14.95
2017-12-19T16:44:58.877Z,16.75
2017-12-19T16:47:26.313Z,16.00
2017-12-19T16:49:54.551Z,15.07
2017-12-19T16:52:21.997Z,13.10
2017-12-19T16:54:49.500Z,15.60
2017-12-19T16:57:16.940Z,15.88
2017-12-19T16:59:44.420Z,16.17
2017-12-19T17:02:11.894Z,15.30
2017-12-19T17:04:39.341Z,16.37
2017-12-19T17:07:06.789Z,15.93
2017-12-19T17:09:34.253Z,15.90
2017-12-19T17:12:01.706Z,16.63
2017-12-19T17:14:29.169Z,13.43
2017-12-19T17:16:56.621Z,14.23
2017-12-19T17:19:24.078Z,14.83
2017-12-19T17:21:51.533Z,13.70
2017-12-19T17:24:19.001Z,14.95
2017-12-19T17:26:46.457Z,14.30
2017-12-19T17:29:13.915Z,14.90
2017-12-19T17:31:41.376Z,15.68
2017-12-19T17:34:08.882Z,15.05
2017-12-19T17:36:36.370Z,15.75
2017-12-19T17:39:03.865Z,15.95
2017-12-19T17:41:32.123Z,12.55
2017-12-19T17:43:59.569Z,13.50
2017-12-19T17:46:27.082Z,14.43
2017-12-19T17:48:54.526Z,11.40
2017-12-19T17:51:21.972Z,16.80
2017-12-19T17:53:50.200Z,12.55
2017-12-19T17:56:17.653Z,15.15
2017-12-19T17:58:45.156Z,14.87
2017-12-19T18:01:12.667Z,15.93
2017-12-19T18:03:40.267Z,14.43
2017-12-19T18:06:07.712Z,15.57
2017-12-19T18:08:35.176Z,15.27
2017-12-19T18:11:03.442Z,15.60
2017-12-19T18:13:30.918Z,16.70
2017-12-19T18:15:58.388Z,15.23
2017-12-19T18:18:26.694Z,15.82
2017-12-19T18:20:54.176Z,15.60
2017-12-19T18:23:21.667Z,15.73
2017-12-19T18:25:49.890Z,17.45
2017-12-19T18:28:17.399Z,16.80
2017-12-19T18:30:44.906Z,14.10
2017-12-19T18:33:12.344Z,16.80
2017-12-19T18:35:39.877Z,18.02
2017-12-19T18:38:08.077Z,17.63
2017-12-19T18:40:35.587Z,16.50
2017-12-19T18:43:03.083Z,16.77
2017-12-19T18:45:30.574Z,18.60
2017-12-19T18:47:58.069Z,13.20
2017-12-19T18:50:26.972Z,19.33
2017-12-19T18:52:54.619Z,19.10
2017-12-19T18:55:22.934Z,17.98
2017-12-19T18:57:50.441Z,18.60
2017-12-19T19:00:17.972Z,19.20
2017-12-19T19:02:45.461Z,18.23
2017-12-19T19:05:12.986Z,19.70
2017-12-19T19:07:40.436Z,20.20
2017-12-19T19:10:08.175Z,20.85
2017-12-19T19:12:36.647Z,15.60
2017-12-19T19:15:04.234Z,20.35
2017-12-19T19:17:31.783Z,20.85
2017-12-19T19:19:59.314Z,18.83
2017-12-19T19:22:26.814Z,18.65
2017-12-19T19:24:54.329Z,20.08
2017-12-19T19:27:21.826Z,24.23
2017-12-19T19:29:49.328Z,20.25
2017-12-19T19:32:16.838Z,22.20
2017-12-19T19:34:44.327Z,19.02
2017-12-19T19:37:11.778Z,21.52
2017-12-19T19:39:40.045Z,19.80
2017-12-19T19:42:07.552Z,20.60
2017-12-19T19:44:35.027Z,24.27
2017-12-19T19:47:03.297Z,11.18
2017-12-19T19:49:31.504Z,24.33
2017-12-19T19:51:59.021Z,20.98
2017-12-19T19:54:26.511Z,22.37
2017-12-19T19:56:54.049Z,24.52
2017-12-19T19:59:22.302Z,22.63
2017-12-19T20:01:49.788Z,21.73
2017-12-19T20:04:18.007Z,24.17
2017-12-19T20:06:45.532Z,22.23
2017-12-19T20:09:13.032Z,23.00
2017-12-19T20:11:41.301Z,22.67
2017-12-19T20:14:08.807Z,21.98
2017-12-19T20:16:37.050Z,24.08
2017-12-19T20:19:04.549Z,23.23
2017-12-19T20:21:32.809Z,22.37
2017-12-19T20:24:01.094Z,24.00
2017-12-19T20:26:29.352Z,17.85
2017-12-19T20:28:56.852Z,21.45
2017-12-19T20:31:24.340Z,19.00
2017-12-19T20:33:51.839Z,18.60
2017-12-19T20:36:20.104Z,17.95
2017-12-19T20:38:47.589Z,22.00
2017-12-19T20:41:15.087Z,21.23
2017-12-19T20:43:42.581Z,22.83
2017-12-19T20:46:10.860Z,21.30
2017-12-19T20:48:38.396Z,15.68
2017-12-19T20:51:05.900Z,18.55
2017-12-19T20:53:33.387Z,21.90
2017-12-19T20:56:00.894Z,22.95
2017-12-19T20:58:29.109Z,18.65
2017-12-19T21:00:56.662Z,20.37
2017-12-19T21:03:24.173Z,19.05
2017-12-19T21:05:51.674Z,20.33
2017-12-19T21:08:19.176Z,18.98
2017-12-19T21:10:46.662Z,19.35
2017-12-19T21:13:14.937Z,16.70
2017-12-19T21:15:43.198Z,18.83
2017-12-19T21:18:11.812Z,20.00
2017-12-19T21:20:39.296Z,18.15
2017-12-19T21:23:06.794Z,19.95
2017-12-19T21:25:34.292Z,16.35
2017-12-19T21:28:01.753Z,12.13
2017-12-19T21:30:29.249Z,18.90
2017-12-19T21:32:56.745Z,18.27
2017-12-19T21:35:25.004Z,21.23
2017-12-19T21:37:52.500Z,18.87
2017-12-19T21:40:20.003Z,15.05
2017-12-19T21:42:47.532Z,19.62
2017-12-19T21:45:15.026Z,16.77
2017-12-19T21:47:42.520Z,19.58
2017-12-19T21:50:09.964Z,13.25
2017-12-19T21:52:37.469Z,16.23
2017-12-19T21:55:04.921Z,18.42
2017-12-19T21:57:32.435Z,18.62
2017-12-19T22:00:00.709Z,18.83
2017-12-19T22:02:28.967Z,19.43
2017-12-19T22:04:56.474Z,17.17
2017-12-19T22:07:23.966Z,16.67
2017-12-19T22:09:51.470Z,15.38
2017-12-19T22:12:19.679Z,17.77
2017-12-19T22:14:47.198Z,20.67
2017-12-19T22:17:15.452Z,19.80
2017-12-19T22:19:42.950Z,17.23
2017-12-19T22:22:10.455Z,20.53
2017-12-19T22:24:37.953Z,17.87
2017-12-19T22:27:05.398Z,17.93
2017-12-19T22:29:33.611Z,18.30
2017-12-19T22:32:01.115Z,20.40
2017-12-19T22:34:28.635Z,17.50
2017-12-19T22:36:56.948Z,17.50
2017-12-19T22:39:24.472Z,18.35
2017-12-19T22:41:51.987Z,17.60
2017-12-19T22:44:19.428Z,19.08
2017-12-19T22:46:47.041Z,16.52
2017-12-19T22:49:14.514Z,17.50
2017-12-19T22:51:41.989Z,17.10
2017-12-19T22:54:09.490Z,16.90
2017-12-19T22:56:36.943Z,14.43
2017-12-19T22:59:04.535Z,15.90
2017-12-19T23:01:32.033Z,17.42
2017-12-19T23:04:00.287Z,18.37
2017-12-19T23:06:27.783Z,16.00
2017-12-19T23:08:55.281Z,19.23
2017-12-19T23:11:22.781Z,18.47
2017-12-19T23:13:50.992Z,19.55
2017-12-19T23:16:18.515Z,17.80
2017-12-19T23:18:46.776Z,19.75
2017-12-19T23:21:14.281Z,17.10
2017-12-19T23:23:41.853Z,16.30
2017-12-19T23:26:09.435Z,16.83
2017-12-19T23:28:37.001Z,17.15
2017-12-19T23:31:04.529Z,18.20
2017-12-19T23:33:32.036Z,11.52
2017-12-19T23:35:59.612Z,18.25
2017-12-19T23:38:27.261Z,16.80
2017-12-19T23:40:54.727Z,15.77
2017-12-19T23:43:22.940Z,16.60
2017-12-19T23:45:50.402Z,16.17
2017-12-19T23:48:17.864Z,15.27
2017-12-19T23:50:45.307Z,17.33
2017-12-19T23:53:12.880Z,16.90
2017-12-19T23:55:43.348Z,10.10
2017-12-19T23:58:15.210Z,16.30
